Overview Statistics Trail Chart Weather Telemetry Raw packets
 

This is the latest recevied weather packets stored in our database for station/object MB7UKB-10. If no packets are shown the sender has not sent any weather packets the latest 10 day(s).

<< 6 7 8 9 10 11 12 >>
Time Temp. Humidity Pressure Rain* Wind** Luminosity Snow
1788337833 17.78° C 81% 1019.8 hPa 0 mm - - -
1788334233 16.67° C 84% 1019.7 hPa 0 mm - - -
1788332433 16.11° C 86% 1019.7 hPa 0 mm - - -
1788330634 15.56° C 86% 1019.4 hPa 0 mm - - -
1788328834 15.56° C 86% 1019.1 hPa 0 mm - - -
1788327033 15° C 86% 1019.4 hPa 0 mm - - -
1788325233 15.56° C 84% 1019.1 hPa 0 mm - - -
1788323433 15.56° C 84% 1019.4 hPa 0 mm - - -
1788321633 15.56° C 83% 1019.6 hPa 0 mm - - -
1788319833 15.56° C 83% 1019.3 hPa 0 mm - - -
1788318033 15.56° C 83% 1019.4 hPa 0 mm - - -
1788316233 15.56° C 82% 1019.5 hPa 0 mm - - -
1788314433 15.56° C 82% 1019.7 hPa 0 mm - - -
1788312633 16.11° C 80% 1019.8 hPa 0 mm - - -
1788310833 16.11° C 79% 1020.1 hPa 0 mm - - -
1788309039 16.11° C 79% 1020.1 hPa 0 mm - - -
1788307234 16.67° C 78% 1020.1 hPa 0 mm - - -
1788305435 16.67° C 77% 1020 hPa 0 mm - - -
1788303633 16.67° C 76% 1020.3 hPa 0 mm - - -
1788301833 16.67° C 75% 1020.2 hPa 0 mm - - -
1788300033 16.67° C 74% 1020.5 hPa 0 mm - - -
1788298234 17.22° C 73% 1020.4 hPa 0 mm - - -
1788296434 17.22° C 71% 1020.4 hPa 0 mm - - -
1788292834 17.78° C 67% 1020.2 hPa 0 mm - - -
1788291034 18.33° C 65% 1020 hPa 0 mm - - -

* Rain latest hour (hover to see other rain measurements)
** Current wind speed in m/s (hover to see current wind gust speed)